sensor_id;sensor_type;location;lat;lon;timestamp;pressure;altitude;pressure_sealevel;temperature;humidity
48035;BME280;33812;46.480;6.834;2023-04-12T00:01:40;93245.66;;;22.21;41.32
48035;BME280;33812;46.480;6.834;2023-04-12T00:05:41;93241.38;;;22.20;41.13
48035;BME280;33812;46.480;6.834;2023-04-12T00:09:46;93240.13;;;22.21;41.29
48035;BME280;33812;46.480;6.834;2023-04-12T00:13:48;93230.31;;;22.20;41.11
48035;BME280;33812;46.480;6.834;2023-04-12T00:17:56;93213.69;;;22.20;41.30
48035;BME280;33812;46.480;6.834;2023-04-12T00:21:58;93214.91;;;22.19;41.35
48035;BME280;33812;46.480;6.834;2023-04-12T00:25:59;93212.91;;;22.20;41.09
48035;BME280;33812;46.480;6.834;2023-04-12T00:30:01;93205.41;;;22.20;41.29
48035;BME280;33812;46.480;6.834;2023-04-12T00:34:05;93203.06;;;22.19;41.17
48035;BME280;33812;46.480;6.834;2023-04-12T00:38:08;93199.53;;;22.18;40.99
48035;BME280;33812;46.480;6.834;2023-04-12T00:42:11;93197.53;;;22.19;41.01
48035;BME280;33812;46.480;6.834;2023-04-12T00:46:13;93185.69;;;22.18;40.79
48035;BME280;33812;46.480;6.834;2023-04-12T00:50:18;93186.44;;;22.19;41.08
48035;BME280;33812;46.480;6.834;2023-04-12T00:54:20;93176.63;;;22.18;40.82
48035;BME280;33812;46.480;6.834;2023-04-12T00:58:22;93162.00;;;22.17;40.88
48035;BME280;33812;46.480;6.834;2023-04-12T01:02:24;93150.94;;;22.17;40.65
48035;BME280;33812;46.480;6.834;2023-04-12T01:06:36;93143.88;;;22.16;40.70
48035;BME280;33812;46.480;6.834;2023-04-12T01:10:48;93128.78;;;22.17;40.73
48035;BME280;33812;46.480;6.834;2023-04-12T01:14:57;93125.28;;;22.17;40.68
48035;BME280;33812;46.480;6.834;2023-04-12T01:19:07;93112.66;;;22.16;40.71
48035;BME280;33812;46.480;6.834;2023-04-12T01:23:33;93114.69;;;22.15;40.62
48035;BME280;33812;46.480;6.834;2023-04-12T01:27:47;93106.38;;;22.15;40.46
48035;BME280;33812;46.480;6.834;2023-04-12T01:31:52;93114.69;;;22.15;40.38
48035;BME280;33812;46.480;6.834;2023-04-12T01:35:55;93106.38;;;22.15;40.39
48035;BME280;33812;46.480;6.834;2023-04-12T01:39:57;93104.81;;;22.14;40.31
48035;BME280;33812;46.480;6.834;2023-04-12T01:44:01;93108.38;;;22.15;40.24
48035;BME280;33812;46.480;6.834;2023-04-12T01:48:03;93094.53;;;22.15;40.05
48035;BME280;33812;46.480;6.834;2023-04-12T01:52:09;93088.22;;;22.14;40.13
48035;BME280;33812;46.480;6.834;2023-04-12T01:56:15;93072.84;;;22.13;40.00
48035;BME280;33812;46.480;6.834;2023-04-12T02:00:19;93066.53;;;22.13;40.22
48035;BME280;33812;46.480;6.834;2023-04-12T02:04:21;93043.63;;;22.12;40.07
48035;BME280;33812;46.480;6.834;2023-04-12T02:08:25;93036.88;;;22.13;39.96
48035;BME280;33812;46.480;6.834;2023-04-12T02:12:26;93022.72;;;22.11;40.17
48035;BME280;33812;46.480;6.834;2023-04-12T02:16:29;92998.59;;;22.12;39.99
48035;BME280;33812;46.480;6.834;2023-04-12T02:20:31;92985.97;;;22.10;40.00
48035;BME280;33812;46.480;6.834;2023-04-12T02:24:35;92974.91;;;22.10;39.93
48035;BME280;33812;46.480;6.834;2023-04-12T02:28:37;92985.22;;;22.10;39.83
48035;BME280;33812;46.480;6.834;2023-04-12T02:32:40;92985.22;;;22.10;39.69
48035;BME280;33812;46.480;6.834;2023-04-12T02:36:46;92982.47;;;22.10;39.58
48035;BME280;33812;46.480;6.834;2023-04-12T02:40:48;92978.91;;;22.09;39.48
48035;BME280;33812;46.480;6.834;2023-04-12T02:44:49;92974.16;;;22.10;39.58
48035;BME280;33812;46.480;6.834;2023-04-12T02:48:53;92981.22;;;22.11;39.65
48035;BME280;33812;46.480;6.834;2023-04-12T02:52:54;92981.69;;;22.09;39.36
48035;BME280;33812;46.480;6.834;2023-04-12T02:56:57;92983.69;;;22.09;39.34
48035;BME280;33812;46.480;6.834;2023-04-12T03:00:59;92979.38;;;22.08;39.35
48035;BME280;33812;46.480;6.834;2023-04-12T03:05:03;92963.53;;;22.08;39.37
48035;BME280;33812;46.480;6.834;2023-04-12T03:09:08;92965.56;;;22.08;39.36
48035;BME280;33812;46.480;6.834;2023-04-12T03:13:09;92957.25;;;22.08;39.23
48035;BME280;33812;46.480;6.834;2023-04-12T03:17:11;92946.19;;;22.08;39.37
48035;BME280;33812;46.480;6.834;2023-04-12T03:21:14;92939.88;;;22.07;39.40
48035;BME280;33812;46.480;6.834;2023-04-12T03:25:16;92940.66;;;22.08;39.32
48035;BME280;33812;46.480;6.834;2023-04-12T03:29:19;92928.03;;;22.07;39.38
48035;BME280;33812;46.480;6.834;2023-04-12T03:33:21;92930.78;;;22.07;39.17
48035;BME280;33812;46.480;6.834;2023-04-12T03:37:24;92933.25;;;22.05;39.31
48035;BME280;33812;46.480;6.834;2023-04-12T03:41:27;92928.50;;;22.05;39.30
48035;BME280;33812;46.480;6.834;2023-04-12T03:45:29;92930.06;;;22.06;39.23
48035;BME280;33812;46.480;6.834;2023-04-12T03:49:31;92923.75;;;22.06;39.15
48035;BME280;33812;46.480;6.834;2023-04-12T03:53:34;92930.78;;;22.07;39.48
48035;BME280;33812;46.480;6.834;2023-04-12T03:57:36;92924.50;;;22.06;39.20
48035;BME280;33812;46.480;6.834;2023-04-12T04:01:38;92928.03;;;22.07;39.34
48035;BME280;33812;46.480;6.834;2023-04-12T04:05:41;92913.44;;;22.06;39.36
48035;BME280;33812;46.480;6.834;2023-04-12T04:09:44;92911.44;;;22.07;39.34
48035;BME280;33812;46.480;6.834;2023-04-12T04:13:46;92907.91;;;22.06;39.25
48035;BME280;33812;46.480;6.834;2023-04-12T04:17:47;92902.38;;;22.06;39.20
48035;BME280;33812;46.480;6.834;2023-04-12T04:21:49;92907.13;;;22.06;39.11
48035;BME280;33812;46.480;6.834;2023-04-12T04:25:52;92923.75;;;22.06;39.09
48035;BME280;33812;46.480;6.834;2023-04-12T04:29:54;92906.84;;;22.04;39.28
48035;BME280;33812;46.480;6.834;2023-04-12T04:33:59;92900.53;;;22.03;39.21
48035;BME280;33812;46.480;6.834;2023-04-12T04:38:02;92903.59;;;22.05;39.13
48035;BME280;33812;46.480;6.834;2023-04-12T04:42:05;92882.69;;;22.04;39.41
48035;BME280;33812;46.480;6.834;2023-04-12T04:46:07;92888.72;;;22.03;39.07
48035;BME280;33812;46.480;6.834;2023-04-12T04:50:10;92858.75;;;22.01;39.01
48035;BME280;33812;46.480;6.834;2023-04-12T04:54:11;92873.31;;;22.02;39.13
48035;BME280;33812;46.480;6.834;2023-04-12T04:58:15;92862.25;;;22.02;38.81
48035;BME280;33812;46.480;6.834;2023-04-12T05:02:17;92850.44;;;22.01;38.90
48035;BME280;33812;46.480;6.834;2023-04-12T05:06:19;92867.78;;;22.02;38.70
48035;BME280;33812;46.480;6.834;2023-04-12T05:10:20;92875.78;;;22.00;38.78
48035;BME280;33812;46.480;6.834;2023-04-12T05:14:24;92882.88;;;22.01;38.75
48035;BME280;33812;46.480;6.834;2023-04-12T05:18:26;92874.25;;;21.98;38.86
48035;BME280;33812;46.480;6.834;2023-04-12T05:22:27;92886.84;;;22.00;38.54
48035;BME280;33812;46.480;6.834;2023-04-12T05:26:30;92896.69;;;22.01;38.38
48035;BME280;33812;46.480;6.834;2023-04-12T05:30:34;92892.38;;;22.00;38.51
48035;BME280;33812;46.480;6.834;2023-04-12T05:34:39;92893.16;;;22.00;38.35
48035;BME280;33812;46.480;6.834;2023-04-12T05:38:41;92899.94;;;21.99;38.39
48035;BME280;33812;46.480;6.834;2023-04-12T05:42:43;92883.34;;;21.99;38.32
48035;BME280;33812;46.480;6.834;2023-04-12T05:46:46;92898.38;;;21.98;37.74
48035;BME280;33812;46.480;6.834;2023-04-12T05:50:51;92879.78;;;21.98;37.56
48035;BME280;33812;46.480;6.834;2023-04-12T05:54:53;92879.53;;;21.87;37.32
48035;BME280;33812;46.480;6.834;2023-04-12T05:58:55;92874.41;;;21.95;37.33
48035;BME280;33812;46.480;6.834;2023-04-12T06:02:58;92853.38;;;21.97;37.49
48035;BME280;33812;46.480;6.834;2023-04-12T06:07:00;92852.59;;;21.97;37.53
48035;BME280;33812;46.480;6.834;2023-04-12T06:11:02;92853.06;;;21.95;37.28
48035;BME280;33812;46.480;6.834;2023-04-12T06:15:05;92861.38;;;21.95;37.50
48035;BME280;33812;46.480;6.834;2023-04-12T06:19:09;92858.59;;;21.95;37.65
48035;BME280;33812;46.480;6.834;2023-04-12T06:23:11;92864.91;;;21.96;37.72
48035;BME280;33812;46.480;6.834;2023-04-12T06:27:13;92867.94;;;21.98;37.96
48035;BME280;33812;46.480;6.834;2023-04-12T06:31:16;92869.97;;;21.97;37.79
48035;BME280;33812;46.480;6.834;2023-04-12T06:35:19;92869.97;;;21.97;37.50
48035;BME280;33812;46.480;6.834;2023-04-12T06:39:21;92857.66;;;21.98;37.44
48035;BME280;33812;46.480;6.834;2023-04-12T06:43:22;92853.06;;;21.95;37.59
48035;BME280;33812;46.480;6.834;2023-04-12T06:47:24;92854.59;;;21.96;37.29
48035;BME280;33812;46.480;6.834;2023-04-12T06:51:27;92851.06;;;21.96;37.25
48035;BME280;33812;46.480;6.834;2023-04-12T06:55:29;92854.59;;;21.96;37.21
48035;BME280;33812;46.480;6.834;2023-04-12T06:59:31;92856.13;;;21.97;37.19
48035;BME280;33812;46.480;6.834;2023-04-12T07:03:33;92864.13;;;21.95;36.98
48035;BME280;33812;46.480;6.834;2023-04-12T07:07:36;92856.13;;;21.97;36.91
48035;BME280;33812;46.480;6.834;2023-04-12T07:11:38;92854.59;;;21.96;36.91
48035;BME280;33812;46.480;6.834;2023-04-12T07:15:39;92831.72;;;21.96;36.99
48035;BME280;33812;46.480;6.834;2023-04-12T07:19:41;92827.69;;;21.97;36.81
48035;BME280;33812;46.480;6.834;2023-04-12T07:23:45;92812.34;;;21.96;37.09
48035;BME280;33812;46.480;6.834;2023-04-12T07:27:50;92813.09;;;21.96;36.92
48035;BME280;33812;46.480;6.834;2023-04-12T07:31:52;92799.25;;;21.96;37.07
48035;BME280;33812;46.480;6.834;2023-04-12T07:35:53;92792.97;;;21.96;37.08
48035;BME280;33812;46.480;6.834;2023-04-12T07:39:57;92770.84;;;21.96;36.85
48035;BME280;33812;46.480;6.834;2023-04-12T07:43:58;92782.66;;;21.96;36.80
48035;BME280;33812;46.480;6.834;2023-04-12T07:48:00;92771.59;;;21.96;36.79
48035;BME280;33812;46.480;6.834;2023-04-12T07:52:03;92777.13;;;21.96;36.76
48035;BME280;33812;46.480;6.834;2023-04-12T07:56:06;92792.50;;;21.97;36.61
48035;BME280;33812;46.480;6.834;2023-04-12T08:00:09;92786.19;;;21.97;36.73
48035;BME280;33812;46.480;6.834;2023-04-12T08:04:11;92779.88;;;21.96;36.66
48035;BME280;33812;46.480;6.834;2023-04-12T08:08:12;92788.19;;;21.96;36.60
48035;BME280;33812;46.480;6.834;2023-04-12T08:12:16;92794.50;;;21.97;36.73
48035;BME280;33812;46.480;6.834;2023-04-12T08:16:17;92802.03;;;21.96;36.49
48035;BME280;33812;46.480;6.834;2023-04-12T08:20:20;92789.75;;;21.97;36.72
48035;BME280;33812;46.480;6.834;2023-04-12T08:24:21;92788.97;;;21.97;36.86
48035;BME280;33812;46.480;6.834;2023-04-12T08:28:24;92783.44;;;21.97;36.93
48035;BME280;33812;46.480;6.834;2023-04-12T08:32:28;92787.72;;;21.98;36.93
48035;BME280;33812;46.480;6.834;2023-04-12T08:36:29;92782.66;;;21.96;36.99
48035;BME280;33812;46.480;6.834;2023-04-12T08:40:31;92782.34;;;21.94;36.96
48035;BME280;33812;46.480;6.834;2023-04-12T08:44:36;92783.13;;;21.95;36.94
48035;BME280;33812;46.480;6.834;2023-04-12T08:48:38;92776.06;;;21.94;37.19
48035;BME280;33812;46.480;6.834;2023-04-12T08:52:41;92790.66;;;21.94;36.96
48035;BME280;33812;46.480;6.834;2023-04-12T08:56:44;92770.84;;;21.96;37.00
48035;BME280;33812;46.480;6.834;2023-04-12T09:00:48;92757.47;;;21.94;37.01
48035;BME280;33812;46.480;6.834;2023-04-12T09:04:50;92763.00;;;21.94;36.92
48035;BME280;33812;46.480;6.834;2023-04-12T09:08:54;92759.19;;;21.92;36.94
48035;BME280;33812;46.480;6.834;2023-04-12T09:12:56;92744.09;;;21.93;36.79
48035;BME280;33812;46.480;6.834;2023-04-12T09:16:59;92751.94;;;21.94;37.07
48035;BME280;33812;46.480;6.834;2023-04-12T09:21:08;92735.31;;;21.94;36.68
48035;BME280;33812;46.480;6.834;2023-04-12T09:25:11;92744.41;;;21.95;37.11
48035;BME280;33812;46.480;6.834;2023-04-12T09:29:21;92737.66;;;21.96;37.18
48035;BME280;33812;46.480;6.834;2023-04-12T09:33:34;92733.63;;;21.97;37.06
48035;BME280;33812;46.480;6.834;2023-04-12T09:37:36;92730.69;;;22.01;36.97
48035;BME280;33812;46.480;6.834;2023-04-12T09:41:38;92712.09;;;22.01;36.88
48035;BME280;33812;46.480;6.834;2023-04-12T09:45:40;92710.09;;;22.02;37.00
48035;BME280;33812;46.480;6.834;2023-04-12T09:50:07;92702.88;;;22.04;37.10
48035;BME280;33812;46.480;6.834;2023-04-12T09:54:09;92693.78;;;22.04;37.21
48035;BME280;33812;46.480;6.834;2023-04-12T09:58:12;92698.56;;;22.03;37.36
48035;BME280;33812;46.480;6.834;2023-04-12T10:02:17;92700.09;;;22.04;37.31
48035;BME280;33812;46.480;6.834;2023-04-12T10:06:20;92710.38;;;22.04;37.29
48035;BME280;33812;46.480;6.834;2023-04-12T10:10:23;92705.94;;;22.06;37.26
48035;BME280;33812;46.480;6.834;2023-04-12T10:14:27;92703.91;;;22.07;37.50
48035;BME280;33812;46.480;6.834;2023-04-12T10:18:29;92687.31;;;22.07;37.41
48035;BME280;33812;46.480;6.834;2023-04-12T10:22:33;92674.25;;;22.07;36.57
48035;BME280;33812;46.480;6.834;2023-04-12T10:26:40;92667.47;;;22.08;36.24
48035;BME280;33812;46.480;6.834;2023-04-12T10:30:42;92672.25;;;22.08;35.81
48035;BME280;33812;46.480;6.834;2023-04-12T10:34:44;92656.13;;;22.06;34.99
48035;BME280;33812;46.480;6.834;2023-04-12T10:39:07;92654.09;;;22.07;34.51
48035;BME280;33812;46.480;6.834;2023-04-12T10:43:25;92650.59;;;22.06;34.41
48035;BME280;33812;46.480;6.834;2023-04-12T10:47:55;92658.91;;;22.06;34.19
48035;BME280;33812;46.480;6.834;2023-04-12T10:52:11;92658.13;;;22.06;33.83
48035;BME280;33812;46.480;6.834;2023-04-12T10:56:37;92646.75;;;22.04;33.98
48035;BME280;33812;46.480;6.834;2023-04-12T11:01:08;92641.69;;;22.02;33.85
48035;BME280;33812;46.480;6.834;2023-04-12T11:05:11;92627.09;;;22.02;32.99
48035;BME280;33812;46.480;6.834;2023-04-12T11:09:24;92633.88;;;22.01;33.01
48035;BME280;33812;46.480;6.834;2023-04-12T11:13:30;92629.56;;;22.00;32.65
48035;BME280;33812;46.480;6.834;2023-04-12T11:17:34;92626.53;;;21.97;32.74
48035;BME280;33812;46.480;6.834;2023-04-12T11:21:36;92621.47;;;21.96;31.99
48035;BME280;33812;46.480;6.834;2023-04-12T11:25:39;92630.50;;;21.96;31.70
48035;BME280;33812;46.480;6.834;2023-04-12T11:29:43;92637.28;;;21.95;31.50
48035;BME280;33812;46.480;6.834;2023-04-12T11:33:45;92646.38;;;21.96;32.08
48035;BME280;33812;46.480;6.834;2023-04-12T11:37:47;92638.06;;;21.96;31.82
48035;BME280;33812;46.480;6.834;2023-04-12T11:41:49;92648.66;;;21.97;32.49
48035;BME280;33812;46.480;6.834;2023-04-12T11:45:56;92642.66;;;21.99;32.66
48035;BME280;33812;46.480;6.834;2023-04-12T11:49:58;92647.41;;;21.98;32.36
48035;BME280;33812;46.480;6.834;2023-04-12T11:54:00;92639.56;;;21.97;32.47
48035;BME280;33812;46.480;6.834;2023-04-12T11:58:03;92638.34;;;21.98;33.24
48035;BME280;33812;46.480;6.834;2023-04-12T12:02:07;92639.09;;;21.98;33.15
48035;BME280;33812;46.480;6.834;2023-04-12T12:06:10;92633.56;;;21.98;33.53
48035;BME280;33812;46.480;6.834;2023-04-12T12:10:12;92623.28;;;21.99;32.79
48035;BME280;33812;46.480;6.834;2023-04-12T12:14:17;92636.63;;;22.01;33.72
48035;BME280;33812;46.480;6.834;2023-04-12T12:18:25;92642.66;;;21.99;33.46
48035;BME280;33812;46.480;6.834;2023-04-12T12:22:28;92629.56;;;22.00;33.37
48035;BME280;33812;46.480;6.834;2023-04-12T12:26:30;92639.41;;;22.01;33.63
48035;BME280;33812;46.480;6.834;2023-04-12T12:30:37;92644.34;;;21.96;32.44
48035;BME280;33812;46.480;6.834;2023-04-12T12:34:49;92660.19;;;21.96;32.82
48035;BME280;33812;46.480;6.834;2023-04-12T12:38:52;92664.94;;;21.95;32.97
48035;BME280;33812;46.480;6.834;2023-04-12T12:42:54;92666.47;;;21.96;32.60
48035;BME280;33812;46.480;6.834;2023-04-12T12:46:58;92666.47;;;21.96;33.08
48035;BME280;33812;46.480;6.834;2023-04-12T12:51:02;92672.00;;;21.96;32.70
48035;BME280;33812;46.480;6.834;2023-04-12T12:55:04;92664.47;;;21.97;33.59
48035;BME280;33812;46.480;6.834;2023-04-12T12:59:06;92680.59;;;21.98;33.09
48035;BME280;33812;46.480;6.834;2023-04-12T13:03:08;92680.72;;;22.04;32.84
48035;BME280;33812;46.480;6.834;2023-04-12T13:07:11;92694.72;;;22.01;32.40
48035;BME280;33812;46.480;6.834;2023-04-12T13:11:13;92699.66;;;21.96;32.54
48035;BME280;33812;46.480;6.834;2023-04-12T13:15:15;92690.91;;;21.98;32.85
48035;BME280;33812;46.480;6.834;2023-04-12T13:19:16;92675.06;;;21.98;33.26
48035;BME280;33812;46.480;6.834;2023-04-12T13:23:20;92679.09;;;21.97;33.14
48035;BME280;33812;46.480;6.834;2023-04-12T13:27:21;92681.84;;;21.97;33.43
48035;BME280;33812;46.480;6.834;2023-04-12T13:31:23;92679.09;;;21.97;33.59
48035;BME280;33812;46.480;6.834;2023-04-12T13:35:25;92678.31;;;21.97;33.68
48035;BME280;33812;46.480;6.834;2023-04-12T13:39:29;92677.53;;;21.96;33.57
48035;BME280;33812;46.480;6.834;2023-04-12T13:43:31;92668.03;;;21.97;33.93
48035;BME280;33812;46.480;6.834;2023-04-12T13:47:33;92666.00;;;21.98;33.90
48035;BME280;33812;46.480;6.834;2023-04-12T13:51:35;92665.25;;;21.97;34.12
48035;BME280;33812;46.480;6.834;2023-04-12T13:55:38;92650.66;;;21.97;33.94
48035;BME280;33812;46.480;6.834;2023-04-12T13:59:40;92629.47;;;21.94;33.47
48035;BME280;33812;46.480;6.834;2023-04-12T14:03:41;92630.69;;;21.93;33.27
48035;BME280;33812;46.480;6.834;2023-04-12T14:07:43;92623.16;;;21.93;33.63
48035;BME280;33812;46.480;6.834;2023-04-12T14:11:51;92609.31;;;21.93;33.89
48035;BME280;33812;46.480;6.834;2023-04-12T14:15:57;92617.63;;;21.93;33.61
48035;BME280;33812;46.480;6.834;2023-04-12T14:19:59;92609.31;;;21.93;33.93
48035;BME280;33812;46.480;6.834;2023-04-12T14:24:00;92598.25;;;21.93;33.75
48035;BME280;33812;46.480;6.834;2023-04-12T14:28:03;92603.50;;;21.91;33.75
48035;BME280;33812;46.480;6.834;2023-04-12T14:32:05;92599.50;;;21.92;33.76
48035;BME280;33812;46.480;6.834;2023-04-12T14:36:07;92612.09;;;21.93;33.76
48035;BME280;33812;46.480;6.834;2023-04-12T14:40:09;92602.28;;;21.92;34.00
48035;BME280;33812;46.480;6.834;2023-04-12T14:44:13;92590.44;;;21.92;33.96
48035;BME280;33812;46.480;6.834;2023-04-12T14:48:14;92600.72;;;21.91;33.92
48035;BME280;33812;46.480;6.834;2023-04-12T14:52:16;92599.50;;;21.92;33.95
48035;BME280;33812;46.480;6.834;2023-04-12T14:56:19;92597.97;;;21.91;34.37
48035;BME280;33812;46.480;6.834;2023-04-12T15:00:22;92586.44;;;21.93;34.42
48035;BME280;33812;46.480;6.834;2023-04-12T15:04:24;92582.91;;;21.92;34.48
48035;BME280;33812;46.480;6.834;2023-04-12T15:08:26;92582.13;;;21.92;34.61
48035;BME280;33812;46.480;6.834;2023-04-12T15:12:28;92578.91;;;21.93;35.27
48035;BME280;33812;46.480;6.834;2023-04-12T15:16:34;92579.66;;;21.94;35.69
48035;BME280;33812;46.480;6.834;2023-04-12T15:20:35;92590.75;;;21.94;35.90
48035;BME280;33812;46.480;6.834;2023-04-12T15:24:37;92606.56;;;21.93;36.21
48035;BME280;33812;46.480;6.834;2023-04-12T15:28:39;92602.53;;;21.94;36.55
48035;BME280;33812;46.480;6.834;2023-04-12T15:32:42;92613.59;;;21.70;36.48
48035;BME280;33812;46.480;6.834;2023-04-12T15:36:46;92623.22;;;21.84;36.69
48035;BME280;33812;46.480;6.834;2023-04-12T15:40:52;92625.06;;;21.87;36.35
48035;BME280;33812;46.480;6.834;2023-04-12T15:44:55;92630.59;;;21.87;35.94
48035;BME280;33812;46.480;6.834;2023-04-12T15:48:58;92632.88;;;21.89;36.09
48035;BME280;33812;46.480;6.834;2023-04-12T15:53:00;92641.66;;;21.87;35.99
48035;BME280;33812;46.480;6.834;2023-04-12T15:57:03;92638.41;;;21.89;36.30
48035;BME280;33812;46.480;6.834;2023-04-12T16:01:10;92649.94;;;21.87;36.12
48035;BME280;33812;46.480;6.834;2023-04-12T16:05:13;92646.41;;;21.86;35.81
48035;BME280;33812;46.480;6.834;2023-04-12T16:09:16;92655.47;;;21.87;35.95
48035;BME280;33812;46.480;6.834;2023-04-12T16:13:17;92655.47;;;21.87;35.54
48035;BME280;33812;46.480;6.834;2023-04-12T16:17:19;92661.19;;;21.74;35.72
48035;BME280;33812;46.480;6.834;2023-04-12T16:21:23;92661.03;;;21.78;34.72
48035;BME280;33812;46.480;6.834;2023-04-12T16:25:26;92667.50;;;21.74;34.57
48035;BME280;33812;46.480;6.834;2023-04-12T16:29:28;92667.19;;;21.72;34.35
48035;BME280;33812;46.480;6.834;2023-04-12T16:33:30;92665.94;;;21.73;34.92
48035;BME280;33812;46.480;6.834;2023-04-12T16:37:35;92681.03;;;21.72;34.46
48035;BME280;33812;46.480;6.834;2023-04-12T16:41:37;92673.03;;;21.74;34.42
48035;BME280;33812;46.480;6.834;2023-04-12T16:45:38;92662.28;;;21.77;34.34
48035;BME280;33812;46.480;6.834;2023-04-12T16:49:45;92662.72;;;21.75;34.34
48035;BME280;33812;46.480;6.834;2023-04-12T16:53:49;92667.50;;;21.74;35.21
48035;BME280;33812;46.480;6.834;2023-04-12T16:57:50;92671.63;;;21.79;35.86
48035;BME280;33812;46.480;6.834;2023-04-12T17:01:53;92663.00;;;21.77;36.88
48035;BME280;33812;46.480;6.834;2023-04-12T17:05:54;92661.78;;;21.78;36.75
48035;BME280;33812;46.480;6.834;2023-04-12T17:09:58;92666.56;;;21.78;36.79
48035;BME280;33812;46.480;6.834;2023-04-12T17:14:00;92673.34;;;21.77;36.65
48035;BME280;33812;46.480;6.834;2023-04-12T17:18:03;92676.84;;;21.77;36.89
48035;BME280;33812;46.480;6.834;2023-04-12T17:22:05;92680.06;;;21.76;37.12
48035;BME280;33812;46.480;6.834;2023-04-12T17:26:09;92691.44;;;21.78;37.40
48035;BME280;33812;46.480;6.834;2023-04-12T17:30:12;92689.63;;;21.74;37.36
48035;BME280;33812;46.480;6.834;2023-04-12T17:34:15;92658.72;;;21.76;37.62
48035;BME280;33812;46.480;6.834;2023-04-12T17:38:17;92678.88;;;21.77;38.51
48035;BME280;33812;46.480;6.834;2023-04-12T17:42:21;92680.72;;;21.80;38.97
48035;BME280;33812;46.480;6.834;2023-04-12T17:46:23;92682.22;;;21.81;39.27
48035;BME280;33812;46.480;6.834;2023-04-12T17:50:25;92662.88;;;21.81;39.47
48035;BME280;33812;46.480;6.834;2023-04-12T17:54:27;92662.41;;;21.82;40.61
48035;BME280;33812;46.480;6.834;2023-04-12T17:58:30;92649.81;;;21.81;40.79
48035;BME280;33812;46.480;6.834;2023-04-12T18:02:33;92667.19;;;21.82;41.15
48035;BME280;33812;46.480;6.834;2023-04-12T18:06:34;92667.47;;;21.84;41.21
48035;BME280;33812;46.480;6.834;2023-04-12T18:10:37;92671.47;;;21.83;40.61
48035;BME280;33812;46.480;6.834;2023-04-12T18:14:41;92688.38;;;21.85;41.16
48035;BME280;33812;46.480;6.834;2023-04-12T18:18:43;92701.41;;;21.84;40.97
48035;BME280;33812;46.480;6.834;2023-04-12T18:22:45;92704.97;;;21.85;41.03
48035;BME280;33812;46.480;6.834;2023-04-12T18:26:46;92689.59;;;21.84;41.08
48035;BME280;33812;46.480;6.834;2023-04-12T18:30:50;92699.13;;;21.83;41.08
48035;BME280;33812;46.480;6.834;2023-04-12T18:34:52;92716.03;;;21.85;41.68
48035;BME280;33812;46.480;6.834;2023-04-12T18:38:54;92735.69;;;21.87;42.45
48035;BME280;33812;46.480;6.834;2023-04-12T18:42:56;92753.50;;;21.86;42.03
48035;BME280;33812;46.480;6.834;2023-04-12T18:47:00;92766.13;;;21.87;42.09
48035;BME280;33812;46.480;6.834;2023-04-12T18:51:02;92756.28;;;21.86;41.86
48035;BME280;33812;46.480;6.834;2023-04-12T18:55:05;92738.16;;;21.85;41.87
48035;BME280;33812;46.480;6.834;2023-04-12T18:59:07;92743.69;;;21.85;41.74
48035;BME280;33812;46.480;6.834;2023-04-12T19:03:12;92752.44;;;21.83;41.77
48035;BME280;33812;46.480;6.834;2023-04-12T19:07:23;92783.34;;;21.82;41.10
48035;BME280;33812;46.480;6.834;2023-04-12T19:11:27;92785.81;;;21.80;40.41
48035;BME280;33812;46.480;6.834;2023-04-12T19:15:30;92774.41;;;21.78;40.88
48035;BME280;33812;46.480;6.834;2023-04-12T19:19:45;92810.38;;;21.78;40.93
48035;BME280;33812;46.480;6.834;2023-04-12T19:23:50;92824.19;;;21.78;41.21
48035;BME280;33812;46.480;6.834;2023-04-12T19:27:57;92827.72;;;21.78;41.37
48035;BME280;33812;46.480;6.834;2023-04-12T19:32:02;92842.78;;;21.77;40.81
48035;BME280;33812;46.480;6.834;2023-04-12T19:36:09;92832.50;;;21.78;40.12
48035;BME280;33812;46.480;6.834;2023-04-12T19:40:11;92848.31;;;21.77;40.28
48035;BME280;33812;46.480;6.834;2023-04-12T19:44:16;92847.56;;;21.77;39.95
48035;BME280;33812;46.480;6.834;2023-04-12T19:48:18;92865.38;;;21.76;40.28
48035;BME280;33812;46.480;6.834;2023-04-12T19:52:23;92870.91;;;21.76;39.88
48035;BME280;33812;46.480;6.834;2023-04-12T19:56:27;92872.13;;;21.74;40.05
48035;BME280;33812;46.480;6.834;2023-04-12T20:00:31;92874.59;;;21.72;39.57
48035;BME280;33812;46.480;6.834;2023-04-12T20:04:34;92868.59;;;21.74;39.38
48035;BME280;33812;46.480;6.834;2023-04-12T20:08:40;92885.19;;;21.74;38.79
48035;BME280;33812;46.480;6.834;2023-04-12T20:12:44;92893.97;;;21.72;38.42
48035;BME280;33812;46.480;6.834;2023-04-12T20:16:47;92905.03;;;21.72;37.75
48035;BME280;33812;46.480;6.834;2023-04-12T20:24:59;92934.34;;;21.70;38.40
48035;BME280;33812;46.480;6.834;2023-04-12T20:29:02;92935.59;;;21.69;38.52
48035;BME280;33812;46.480;6.834;2023-04-12T20:33:06;92952.03;;;21.72;38.40
48035;BME280;33812;46.480;6.834;2023-04-12T20:37:10;92948.19;;;21.70;38.36
48035;BME280;33812;46.480;6.834;2023-04-12T20:41:14;92951.41;;;21.68;38.66
48035;BME280;33812;46.480;6.834;2023-04-12T20:45:16;92949.88;;;21.67;38.68
48035;BME280;33812;46.480;6.834;2023-04-12T20:49:21;92948.66;;;21.68;38.79
48035;BME280;33812;46.480;6.834;2023-04-12T20:53:27;92951.13;;;21.66;38.96
48035;BME280;33812;46.480;6.834;2023-04-12T20:57:32;92953.88;;;21.66;38.92
48035;BME280;33812;46.480;6.834;2023-04-12T21:01:34;92948.34;;;21.66;39.18
48035;BME280;33812;46.480;6.834;2023-04-12T21:05:36;92952.34;;;21.65;39.16
48035;BME280;33812;46.480;6.834;2023-04-12T21:09:39;92943.56;;;21.67;39.28
48035;BME280;33812;46.480;6.834;2023-04-12T21:13:42;92951.13;;;21.66;39.18
48035;BME280;33812;46.480;6.834;2023-04-12T21:17:44;92947.13;;;21.67;39.08
48035;BME280;33812;46.480;6.834;2023-04-12T21:21:46;92959.41;;;21.66;39.25
48035;BME280;33812;46.480;6.834;2023-04-12T21:25:50;92966.16;;;21.65;39.31
48035;BME280;33812;46.480;6.834;2023-04-12T21:29:53;92957.09;;;21.65;39.38
48035;BME280;33812;46.480;6.834;2023-04-12T21:33:56;92961.88;;;21.64;39.30